Newbern, Tennessee
Current Conditions -  °F | °C
As of 3:15 AM on Monday 24 Nov 2014 (Local Time) from KUCY Reporting Station
Overcast Overcast  
Wind Chill: 59°   Ceiling: 2800
Heat Index: 59°   Visibility: 10mi
Dew Point: 54°   Wind: 23mph
Humidity: 82%   Direction: 230°SW
Pressure: 29.38"   Gusts: 35mph
Location:  36.11°N, 89.26°W
Report Text: KUCY 240915Z AUTO 23020G30KT 10SM BKN028 BKN034 OVC040 15/12 A2938 RMK
Loading
Personal Weather Stations






























Interactive Weather Map New forecast layout! Learn more

10-Day Weather Forecast

Advertisements
Track Severe Weather on mobile